YKA weather

Kamloops Airport
Kamloops, British Columbia, Canada

Public forecast

Using degrees Celsius for public forecast. Weather courtesy of forecast.io.

METAR (pilot weather report)

Retrieved 2019/05/21 08:00 UTC (42 minutes ago):

CYKA 210800Z 25005KT 20SM BKN095 BKN120 13/07 A2967 RMK AC5AC2 SLP048 DENSITY ALT 1500FT

TAF (pilot weather forecast)

Retrieved 2019/05/21 07:39 UTC (1 hour ago):

TAF CYKA 210638Z 2107/2119 VRB03KT P6SM FEW090 BKN120 FM211500 VRB03KT P6SM SCT080 RMK NXT FCST BY 211300Z